createdAt,value
2018-02-21T00:00:50.365Z,49.42
2018-02-21T00:03:17.864Z,44.85
2018-02-21T00:05:45.332Z,47.58
2018-02-21T00:08:12.800Z,46.08
2018-02-21T00:10:40.261Z,47.47
2018-02-21T00:13:07.732Z,45.90
2018-02-21T00:15:36.820Z,52.15
2018-02-21T00:18:04.292Z,50.10
2018-02-21T00:20:31.781Z,52.08
2018-02-21T00:22:59.260Z,49.78
2018-02-21T00:25:26.720Z,50.60
2018-02-21T00:27:54.296Z,48.83
2018-02-21T00:30:21.864Z,50.12
2018-02-21T00:32:49.334Z,50.78
2018-02-21T00:35:16.806Z,48.25
2018-02-21T00:37:44.272Z,51.08
2018-02-21T00:40:11.851Z,48.38
2018-02-21T00:42:39.416Z,50.45
2018-02-21T00:45:06.888Z,49.08
2018-02-21T00:47:34.353Z,49.88
2018-02-21T00:50:01.828Z,51.67
2018-02-21T00:52:29.296Z,48.35
2018-02-21T00:54:56.757Z,48.75
2018-02-21T00:57:24.339Z,51.40
2018-02-21T00:59:51.907Z,51.20
2018-02-21T01:02:19.384Z,47.97
2018-02-21T01:04:46.900Z,53.97
2018-02-21T01:07:14.423Z,47.55
2018-02-21T01:09:41.994Z,50.85
2018-02-21T01:12:09.473Z,50.12
2018-02-21T01:14:37.033Z,52.78
2018-02-21T01:17:04.600Z,49.53
2018-02-21T01:19:32.068Z,50.05
2018-02-21T01:21:59.544Z,50.55
2018-02-21T01:24:27.020Z,51.80
2018-02-21T01:26:54.490Z,53.03
2018-02-21T01:29:21.979Z,52.00
2018-02-21T01:31:50.244Z,50.58
2018-02-21T01:34:17.717Z,51.88
2018-02-21T01:36:45.280Z,56.95
2018-02-21T01:39:12.743Z,54.65
2018-02-21T01:41:40.220Z,53.42
2018-02-21T01:44:07.704Z,49.38
2018-02-21T01:46:35.236Z,54.95
2018-02-21T01:49:02.709Z,51.37
2018-02-21T01:51:30.188Z,53.20
2018-02-21T01:53:57.668Z,54.85
2018-02-21T01:56:25.140Z,51.15
2018-02-21T01:58:52.619Z,54.22
2018-02-21T02:01:21.616Z,54.55
2018-02-21T02:03:49.096Z,54.08
2018-02-21T02:06:16.656Z,50.85
2018-02-21T02:08:44.227Z,53.70
2018-02-21T02:11:11.804Z,52.42
2018-02-21T02:13:39.280Z,50.95
2018-02-21T02:16:06.841Z,53.80
2018-02-21T02:18:34.411Z,51.33
2018-02-21T02:21:01.891Z,52.72
2018-02-21T02:23:29.360Z,52.38
2018-02-21T02:25:56.827Z,51.35
2018-02-21T02:28:24.323Z,54.88
2018-02-21T02:30:51.872Z,49.55
2018-02-21T02:33:19.391Z,57.38
2018-02-21T02:35:46.907Z,50.38
2018-02-21T02:38:26.460Z,52.15
2018-02-21T02:40:53.940Z,55.45
2018-02-21T02:43:21.468Z,51.75
2018-02-21T02:45:48.967Z,57.90
2018-02-21T02:48:16.436Z,55.45
2018-02-21T02:50:44.008Z,56.20
2018-02-21T02:53:11.581Z,59.53
2018-02-21T02:55:39.062Z,58.55
2018-02-21T02:58:06.628Z,56.60
2018-02-21T03:00:34.192Z,53.85
2018-02-21T03:03:01.687Z,55.10
2018-02-21T03:05:29.152Z,55.97
2018-02-21T03:07:56.624Z,53.17
2018-02-21T03:10:24.100Z,53.60
2018-02-21T03:12:52.333Z,55.20
2018-02-21T03:15:19.831Z,53.53
2018-02-21T03:17:47.303Z,58.87
2018-02-21T03:20:14.779Z,53.05
2018-02-21T03:22:42.340Z,50.33
2018-02-21T03:25:09.912Z,55.92
2018-02-21T03:27:37.484Z,52.40
2018-02-21T03:30:05.773Z,51.90
2018-02-21T03:32:33.256Z,51.63
2018-02-21T03:35:00.734Z,52.08
2018-02-21T03:37:28.220Z,54.17
2018-02-21T03:39:56.452Z,52.75
2018-02-21T03:42:23.959Z,52.28
2018-02-21T03:44:51.520Z,51.45
2018-02-21T03:47:19.082Z,50.95
2018-02-21T03:49:46.656Z,49.30
2018-02-21T03:52:14.228Z,50.85
2018-02-21T03:54:41.704Z,51.03
2018-02-21T03:57:09.172Z,55.22
2018-02-21T03:59:36.740Z,53.45
2018-02-21T04:02:04.216Z,53.00
2018-02-21T04:04:33.193Z,52.15
2018-02-21T04:07:00.679Z,53.40
2018-02-21T04:09:28.251Z,51.05
2018-02-21T04:11:55.931Z,49.78
2018-02-21T04:14:23.405Z,54.28
2018-02-21T04:16:50.971Z,52.17
2018-02-21T04:19:18.436Z,51.40
2018-02-21T04:21:46.013Z,50.80
2018-02-21T04:24:13.584Z,51.55
2018-02-21T04:26:41.056Z,49.75
2018-02-21T04:29:08.540Z,50.15
2018-02-21T04:31:36.092Z,50.20
2018-02-21T04:34:03.564Z,50.72
2018-02-21T04:36:31.056Z,50.38
2018-02-21T04:38:58.587Z,52.62
2018-02-21T04:41:26.061Z,48.42
2018-02-21T04:43:53.538Z,50.92
2018-02-21T04:46:21.117Z,52.53
2018-02-21T04:48:48.595Z,52.10
2018-02-21T04:51:16.161Z,52.47
2018-02-21T04:53:43.636Z,49.28
2018-02-21T04:59:22.909Z,50.25
2018-02-21T05:01:50.384Z,50.70
2018-02-21T05:04:17.848Z,50.63
2018-02-21T05:06:45.324Z,51.13
2018-02-21T05:09:12.787Z,46.65
2018-02-21T05:11:40.369Z,51.37
2018-02-21T05:14:07.823Z,49.50
2018-02-21T05:16:35.445Z,51.20
2018-02-21T05:19:02.980Z,48.70
2018-02-21T05:21:30.544Z,51.92
2018-02-21T05:23:58.015Z,50.53
2018-02-21T05:26:25.584Z,51.20
2018-02-21T05:28:53.048Z,50.67
2018-02-21T05:31:20.508Z,48.70
2018-02-21T05:33:47.976Z,52.90
2018-02-21T05:36:15.445Z,48.55
2018-02-21T05:38:42.932Z,51.92
2018-02-21T05:41:10.396Z,51.08
2018-02-21T05:43:37.972Z,51.35
2018-02-21T05:46:05.546Z,51.20
2018-02-21T05:48:33.115Z,51.85
2018-02-21T05:51:00.604Z,49.47
2018-02-21T05:53:28.160Z,51.85
2018-02-21T05:55:55.731Z,49.83
2018-02-21T05:58:23.200Z,51.65
2018-02-21T06:00:50.671Z,51.40
2018-02-21T06:03:18.140Z,50.88
2018-02-21T06:05:45.612Z,50.28
2018-02-21T06:08:13.072Z,50.50
2018-02-21T06:10:40.551Z,50.85
2018-02-21T06:13:08.122Z,50.55
2018-02-21T06:15:35.586Z,54.72
2018-02-21T06:18:03.076Z,51.42
2018-02-21T06:20:30.548Z,47.70
2018-02-21T06:22:58.151Z,51.05
2018-02-21T06:25:26.392Z,53.92
2018-02-21T06:27:53.871Z,52.15
2018-02-21T06:30:21.340Z,50.60
2018-02-21T06:32:48.800Z,48.65
2018-02-21T06:35:16.368Z,49.33
2018-02-21T06:37:43.829Z,49.20
2018-02-21T06:40:11.312Z,50.63
2018-02-21T06:42:38.771Z,50.17
2018-02-21T06:45:06.247Z,49.78
2018-02-21T06:47:33.722Z,53.35
2018-02-21T06:50:01.288Z,51.60
2018-02-21T06:52:28.760Z,49.15
2018-02-21T06:54:56.325Z,49.75
2018-02-21T06:57:23.800Z,48.22
2018-02-21T06:59:51.267Z,49.58
2018-02-21T07:02:30.819Z,49.88
2018-02-21T07:04:58.283Z,50.22
2018-02-21T07:07:25.763Z,48.03
2018-02-21T07:09:53.384Z,49.17
2018-02-21T07:12:20.916Z,47.88
2018-02-21T07:14:48.380Z,46.35
2018-02-21T07:17:15.856Z,50.90
2018-02-21T07:19:44.840Z,50.53
2018-02-21T07:22:12.323Z,51.10
2018-02-21T07:24:39.893Z,49.03
2018-02-21T07:27:07.383Z,50.12
2018-02-21T07:29:34.932Z,47.67
2018-02-21T07:32:02.405Z,49.25
2018-02-21T07:34:29.880Z,51.80
2018-02-21T07:36:57.363Z,52.38
2018-02-21T07:39:24.837Z,53.42
2018-02-21T07:41:52.295Z,48.42
2018-02-21T07:44:19.775Z,47.95
2018-02-21T07:46:48.007Z,52.83
2018-02-21T07:49:15.511Z,47.62
2018-02-21T07:51:43.080Z,47.67
2018-02-21T07:54:10.543Z,45.72
2018-02-21T07:56:38.015Z,46.05
2018-02-21T07:59:05.488Z,46.20
2018-02-21T08:01:32.968Z,45.42
2018-02-21T08:04:00.427Z,47.95
2018-02-21T08:06:27.895Z,45.78
2018-02-21T08:08:55.467Z,45.33
2018-02-21T08:11:22.924Z,47.33
2018-02-21T08:13:50.408Z,43.53
2018-02-21T08:16:17.864Z,44.75
2018-02-21T08:18:45.338Z,43.90
2018-02-21T08:21:12.804Z,44.22
2018-02-21T08:23:40.287Z,43.65
2018-02-21T08:26:07.748Z,45.12
2018-02-21T08:28:35.228Z,41.10
2018-02-21T08:31:02.712Z,45.63
2018-02-21T08:33:30.268Z,45.28
2018-02-21T08:35:57.723Z,42.65
2018-02-21T08:38:25.187Z,43.55
2018-02-21T08:40:52.652Z,41.25
2018-02-21T08:43:20.145Z,40.47
2018-02-21T08:45:47.612Z,40.33
2018-02-21T08:48:15.072Z,38.35
2018-02-21T08:50:42.532Z,39.63
2018-02-21T08:53:09.994Z,40.17
2018-02-21T08:55:37.455Z,41.20
2018-02-21T08:58:04.926Z,39.05
2018-02-21T09:00:32.424Z,39.30
2018-02-21T09:03:00.010Z,40.45
2018-02-21T09:05:27.456Z,39.53
2018-02-21T09:07:54.940Z,37.50
2018-02-21T09:10:22.508Z,37.85
2018-02-21T09:12:49.972Z,36.90
2018-02-21T09:15:17.448Z,37.78
2018-02-21T09:17:44.906Z,36.75
2018-02-21T09:20:12.356Z,34.70
2018-02-21T09:22:39.821Z,33.20
2018-02-21T09:25:07.276Z,36.03
2018-02-21T09:27:34.797Z,34.95
2018-02-21T09:30:02.247Z,34.53
2018-02-21T09:32:29.710Z,35.03
2018-02-21T09:34:57.200Z,34.65
2018-02-21T09:37:24.777Z,34.75
2018-02-21T09:39:52.344Z,33.60
2018-02-21T09:42:19.801Z,34.53
2018-02-21T09:44:47.280Z,31.92
2018-02-21T09:47:14.757Z,33.53
2018-02-21T09:49:42.220Z,34.25
2018-02-21T09:52:09.688Z,33.45
2018-02-21T09:54:37.197Z,32.13
2018-02-21T09:57:04.659Z,34.47
2018-02-21T09:59:32.208Z,32.75
2018-02-21T10:01:59.676Z,30.58
2018-02-21T10:04:27.152Z,31.30
2018-02-21T10:06:54.600Z,29.70
2018-02-21T10:09:22.087Z,30.73
2018-02-21T10:11:49.550Z,29.95
2018-02-21T10:14:17.021Z,30.33
2018-02-21T10:16:44.488Z,28.70
2018-02-21T10:19:11.940Z,30.25
2018-02-21T10:21:39.398Z,27.73
2018-02-21T10:24:06.896Z,28.08
2018-02-21T10:26:34.420Z,28.40
2018-02-21T10:29:01.833Z,27.92
2018-02-21T10:31:29.294Z,29.35
2018-02-21T10:33:56.772Z,30.85
2018-02-21T10:36:24.240Z,28.85
2018-02-21T10:38:51.715Z,29.42
2018-02-21T10:41:19.184Z,30.02
2018-02-21T10:43:46.637Z,29.12
2018-02-21T10:46:14.100Z,26.75
2018-02-21T10:48:41.611Z,27.65
2018-02-21T10:51:09.059Z,28.90
2018-02-21T10:53:36.528Z,25.48
2018-02-21T10:56:04.109Z,28.73
2018-02-21T10:58:31.568Z,26.12
2018-02-21T11:01:04.728Z,27.17
2018-02-21T11:03:32.245Z,26.40
2018-02-21T11:05:59.708Z,27.55
2018-02-21T11:08:27.176Z,27.30
2018-02-21T11:10:54.643Z,26.87
2018-02-21T11:13:22.115Z,27.45
2018-02-21T11:15:49.642Z,25.48
2018-02-21T11:18:17.876Z,25.33
2018-02-21T11:20:45.328Z,25.65
2018-02-21T11:23:12.816Z,26.27
2018-02-21T11:25:40.300Z,32.20
2018-02-21T11:28:07.773Z,29.00
2018-02-21T11:30:35.240Z,29.00
2018-02-21T11:33:02.800Z,27.70
2018-02-21T11:35:30.276Z,27.02
2018-02-21T11:37:57.743Z,28.15
2018-02-21T11:40:25.212Z,27.55
2018-02-21T11:42:52.679Z,27.30
2018-02-21T11:45:20.149Z,26.10
2018-02-21T11:47:47.718Z,28.65
2018-02-21T11:50:15.184Z,27.85
2018-02-21T11:52:42.759Z,28.05
2018-02-21T11:55:10.222Z,28.35
2018-02-21T11:57:37.806Z,28.58
2018-02-21T12:00:05.287Z,28.17
2018-02-21T12:02:32.851Z,28.30
2018-02-21T12:05:00.320Z,28.60
2018-02-21T12:07:27.800Z,27.33
2018-02-21T12:09:55.305Z,27.62
2018-02-21T12:12:22.826Z,27.90
2018-02-21T12:14:50.304Z,29.10
2018-02-21T12:17:18.527Z,28.00
2018-02-21T12:19:46.876Z,28.02
2018-02-21T12:22:14.339Z,27.50
2018-02-21T12:24:41.908Z,26.80
2018-02-21T12:27:09.481Z,26.55
2018-02-21T12:29:36.944Z,26.75
2018-02-21T12:32:05.208Z,28.20
2018-02-21T12:34:32.711Z,27.55
2018-02-21T12:37:00.179Z,27.75
2018-02-21T12:39:38.387Z,27.77
2018-02-21T12:42:05.876Z,26.95
2018-02-21T12:44:33.351Z,28.30
2018-02-21T12:47:00.828Z,28.12
2018-02-21T12:49:28.313Z,25.88
2018-02-21T12:51:56.571Z,26.48
2018-02-21T12:54:24.032Z,27.45
2018-02-21T12:56:51.507Z,28.45
2018-02-21T12:59:19.003Z,27.90
2018-02-21T13:01:46.590Z,27.83
2018-02-21T13:04:14.083Z,28.80
2018-02-21T13:06:41.549Z,29.42
2018-02-21T13:09:09.016Z,27.90
2018-02-21T13:11:36.476Z,28.15
2018-02-21T13:14:04.022Z,29.25
2018-02-21T13:16:31.484Z,28.42
2018-02-21T13:18:59.032Z,27.23
2018-02-21T13:21:26.536Z,26.12
2018-02-21T13:23:54.776Z,27.60
2018-02-21T13:26:22.247Z,28.73
2018-02-21T13:28:49.747Z,24.70
2018-02-21T13:31:17.229Z,23.70
2018-02-21T13:33:44.691Z,24.13
2018-02-21T13:36:12.261Z,21.30
2018-02-21T13:38:39.727Z,22.47
2018-02-21T13:41:07.302Z,20.93
2018-02-21T13:43:34.781Z,21.37
2018-02-21T13:46:02.244Z,20.43
2018-02-21T13:48:29.702Z,22.47
2018-02-21T13:50:57.161Z,22.07
2018-02-21T13:53:24.652Z,20.80
2018-02-21T13:55:52.112Z,20.80
2018-02-21T13:58:19.575Z,21.47
2018-02-21T14:00:47.035Z,21.57
2018-02-21T14:03:14.536Z,21.97
2018-02-21T14:05:42.000Z,22.20
2018-02-21T14:08:09.458Z,20.87
2018-02-21T14:10:36.925Z,22.03
2018-02-21T14:13:04.399Z,21.33
2018-02-21T14:15:31.876Z,21.53
2018-02-21T14:17:59.340Z,19.30
2018-02-21T14:20:26.907Z,20.60
2018-02-21T14:22:54.373Z,23.30
2018-02-21T14:25:21.856Z,23.07
2018-02-21T14:27:49.425Z,21.80
2018-02-21T14:30:16.888Z,22.00
2018-02-21T14:32:44.352Z,21.47
2018-02-21T14:35:11.836Z,23.23
2018-02-21T14:37:39.396Z,21.27
2018-02-21T14:40:06.847Z,23.20
2018-02-21T14:42:34.344Z,21.90
2018-02-21T14:45:01.817Z,23.17
2018-02-21T14:47:29.279Z,19.87
2018-02-21T14:49:56.855Z,22.40
2018-02-21T14:52:24.311Z,20.90
2018-02-21T14:54:51.792Z,21.83
2018-02-21T14:57:19.256Z,21.20
2018-02-21T14:59:46.836Z,20.40
2018-02-21T15:02:14.289Z,20.80
2018-02-21T15:04:41.767Z,20.73
2018-02-21T15:07:09.241Z,21.60
2018-02-21T15:09:36.720Z,22.10
2018-02-21T15:12:04.278Z,21.87
2018-02-21T15:14:31.760Z,20.40
2018-02-21T15:16:59.320Z,22.20
2018-02-21T15:19:26.796Z,20.80
2018-02-21T15:21:54.254Z,23.03
2018-02-21T15:24:21.720Z,22.07
2018-02-21T15:26:49.185Z,20.90
2018-02-21T15:29:16.668Z,20.77
2018-02-21T15:31:44.127Z,22.30
2018-02-21T15:34:11.662Z,23.97
2018-02-21T15:36:39.181Z,23.43
2018-02-21T15:39:06.748Z,21.20
2018-02-21T15:41:34.249Z,21.90
2018-02-21T15:44:02.513Z,22.10
2018-02-21T15:46:29.982Z,23.80
2018-02-21T15:48:57.559Z,21.90
2018-02-21T15:51:25.037Z,22.20
2018-02-21T15:53:53.280Z,21.27
2018-02-21T15:56:20.776Z,20.70
2018-02-21T15:58:48.240Z,22.43
2018-02-21T16:01:15.707Z,20.83
2018-02-21T16:03:43.181Z,22.27
2018-02-21T16:06:10.642Z,21.80
2018-02-21T16:08:38.114Z,22.10
2018-02-21T16:11:05.600Z,21.67
2018-02-21T16:13:33.068Z,20.90
2018-02-21T16:16:00.535Z,22.37
2018-02-21T16:18:28.108Z,22.30
2018-02-21T16:20:55.580Z,20.93
2018-02-21T16:23:23.046Z,21.50
2018-02-21T16:25:50.613Z,23.27
2018-02-21T16:28:18.184Z,25.25
2018-02-21T16:30:45.652Z,22.45
2018-02-21T16:33:13.136Z,22.23
2018-02-21T16:35:40.591Z,23.52
2018-02-21T16:38:08.066Z,24.42
2018-02-21T16:40:35.512Z,25.23
2018-02-21T16:43:02.968Z,22.87
2018-02-21T16:45:30.476Z,23.75
2018-02-21T16:47:57.932Z,23.95
2018-02-21T16:50:25.410Z,23.20
2018-02-21T16:52:52.876Z,21.95
2018-02-21T16:55:20.344Z,22.70
2018-02-21T16:57:47.820Z,21.92
2018-02-21T17:00:15.282Z,21.40
2018-02-21T17:02:42.812Z,21.55
2018-02-21T17:05:11.956Z,21.75
2018-02-21T17:07:39.565Z,22.62
2018-02-21T17:10:07.119Z,22.00
2018-02-21T17:12:34.592Z,21.45
2018-02-21T17:15:02.105Z,21.08
2018-02-21T17:17:29.564Z,22.20
2018-02-21T17:19:57.804Z,22.33
2018-02-21T17:22:25.276Z,21.27
2018-02-21T17:24:52.751Z,22.58
2018-02-21T17:27:20.208Z,22.65
2018-02-21T17:29:47.689Z,22.35
2018-02-21T17:32:15.260Z,21.55
2018-02-21T17:34:42.712Z,23.30
2018-02-21T17:37:10.200Z,21.70
2018-02-21T17:39:37.667Z,23.05
2018-02-21T17:42:05.192Z,22.42
2018-02-21T17:44:32.680Z,24.45
2018-02-21T17:47:00.133Z,23.48
2018-02-21T17:49:27.596Z,24.85
2018-02-21T17:51:55.120Z,24.98
2018-02-21T17:54:22.584Z,27.27
2018-02-21T17:56:50.061Z,28.02
2018-02-21T17:59:17.542Z,25.17
2018-02-21T18:01:45.064Z,25.10
2018-02-21T18:04:12.564Z,25.88
2018-02-21T18:06:40.024Z,25.98
2018-02-21T18:09:07.493Z,25.85
2018-02-21T18:11:34.988Z,24.12
2018-02-21T18:14:02.484Z,25.65
2018-02-21T18:16:30.712Z,26.60
2018-02-21T18:18:58.213Z,23.45
2018-02-21T18:21:31.380Z,23.87
2018-02-21T18:23:58.883Z,23.10
2018-02-21T18:26:26.466Z,27.45
2018-02-21T18:28:54.047Z,27.40
2018-02-21T18:31:21.509Z,31.98
2018-02-21T18:33:51.427Z,34.83
2018-02-21T18:36:19.035Z,32.00
2018-02-21T18:38:46.468Z,28.65
2018-02-21T18:41:13.949Z,25.83
2018-02-21T18:43:41.507Z,25.50
2018-02-21T18:46:08.968Z,26.73
2018-02-21T18:48:36.527Z,31.85
2018-02-21T18:51:03.983Z,27.87
2018-02-21T18:53:31.512Z,25.25
2018-02-21T18:55:59.060Z,25.52
2018-02-21T18:58:26.609Z,26.62
2018-02-21T19:00:54.100Z,26.20
2018-02-21T19:03:21.575Z,26.55
2018-02-21T19:05:49.052Z,23.33
2018-02-21T19:08:16.560Z,25.05
2018-02-21T19:10:44.790Z,25.65
2018-02-21T19:13:12.244Z,23.77
2018-02-21T19:15:39.708Z,25.20
2018-02-21T19:18:07.283Z,25.08
2018-02-21T19:20:34.740Z,25.33
2018-02-21T19:23:02.252Z,25.90
2018-02-21T19:25:29.816Z,24.45
2018-02-21T19:27:57.272Z,25.60
2018-02-21T19:30:24.748Z,26.48
2018-02-21T19:32:52.232Z,24.95
2018-02-21T19:35:19.693Z,26.85
2018-02-21T19:37:47.165Z,26.10
2018-02-21T19:40:14.632Z,26.23
2018-02-21T19:42:42.104Z,31.12
2018-02-21T19:45:09.564Z,31.42
2018-02-21T19:47:37.100Z,27.65
2018-02-21T19:50:06.067Z,25.45
2018-02-21T19:52:33.621Z,31.87
2018-02-21T19:55:01.081Z,30.77
2018-02-21T19:57:28.668Z,25.62
2018-02-21T19:59:56.240Z,27.25
2018-02-21T20:02:23.704Z,26.95
2018-02-21T20:04:51.169Z,25.40
2018-02-21T20:07:18.731Z,24.50
2018-02-21T20:09:46.211Z,28.83
2018-02-21T20:12:13.668Z,25.40
2018-02-21T20:14:41.151Z,33.78
2018-02-21T20:17:08.618Z,27.27
2018-02-21T20:19:36.216Z,25.55
2018-02-21T20:22:03.724Z,28.42
2018-02-21T20:24:32.103Z,28.67
2018-02-21T20:27:00.344Z,31.62
2018-02-21T20:29:27.918Z,29.45
2018-02-21T20:31:55.455Z,26.10
2018-02-21T20:34:22.960Z,28.02
2018-02-21T20:36:50.529Z,24.92
2018-02-21T20:39:17.983Z,24.67
2018-02-21T20:41:45.463Z,26.60
2018-02-21T20:44:12.936Z,23.40
2018-02-21T20:46:40.516Z,23.67
2018-02-21T20:49:08.278Z,24.73
2018-02-21T20:51:36.242Z,25.37
2018-02-21T20:54:03.847Z,26.40
2018-02-21T20:56:31.332Z,25.30
2018-02-21T20:58:58.787Z,25.95
2018-02-21T21:01:26.248Z,27.95
2018-02-21T21:03:53.727Z,30.90
2018-02-21T21:06:21.187Z,26.08
2018-02-21T21:08:48.666Z,24.98
2018-02-21T21:11:16.232Z,29.33
2018-02-21T21:13:43.704Z,26.50
2018-02-21T21:16:11.273Z,26.42
2018-02-21T21:18:38.848Z,26.62
2018-02-21T21:21:06.308Z,25.23
2018-02-21T21:23:33.769Z,25.02
2018-02-21T21:26:01.237Z,24.90
2018-02-21T21:28:28.695Z,24.08
2018-02-21T21:30:56.172Z,24.52
2018-02-21T21:33:23.656Z,24.37
2018-02-21T21:35:51.142Z,23.85
2018-02-21T21:38:18.596Z,25.30
2018-02-21T21:40:46.067Z,24.30
2018-02-21T21:43:13.635Z,23.67
2018-02-21T21:45:41.097Z,23.30
2018-02-21T21:48:08.680Z,22.62
2018-02-21T21:50:36.139Z,25.27
2018-02-21T21:53:03.602Z,24.37
2018-02-21T21:55:31.081Z,23.25
2018-02-21T21:57:58.586Z,23.50
2018-02-21T22:00:26.028Z,22.10
2018-02-21T22:02:53.500Z,22.77
2018-02-21T22:05:21.064Z,23.65
2018-02-21T22:07:48.544Z,24.42
2018-02-21T22:10:16.004Z,21.95
2018-02-21T22:12:43.482Z,23.92
2018-02-21T22:15:10.943Z,22.55
2018-02-21T22:17:38.416Z,22.10
2018-02-21T22:20:05.984Z,23.02
2018-02-21T22:22:33.596Z,24.10
2018-02-21T22:25:01.811Z,21.85
2018-02-21T22:27:29.279Z,23.55
2018-02-21T22:29:56.788Z,21.23
2018-02-21T22:32:24.364Z,24.15
2018-02-21T22:34:51.823Z,21.90
2018-02-21T22:37:19.297Z,20.75
2018-02-21T22:39:46.763Z,21.60
2018-02-21T22:42:14.219Z,21.30
2018-02-21T22:44:41.696Z,21.50
2018-02-21T22:47:09.155Z,20.15
2018-02-21T22:49:36.656Z,20.55
2018-02-21T22:52:04.216Z,21.87
2018-02-21T22:54:32.543Z,21.35
2018-02-21T22:57:00.796Z,23.15
2018-02-21T22:59:28.268Z,21.77
2018-02-21T23:01:56.508Z,22.80
2018-02-21T23:04:23.964Z,23.02
2018-02-21T23:06:52.204Z,22.20
2018-02-21T23:09:19.780Z,22.00
2018-02-21T23:11:47.240Z,22.15
2018-02-21T23:14:14.776Z,21.40
2018-02-21T23:16:42.237Z,21.65
2018-02-21T23:19:09.700Z,21.77
2018-02-21T23:21:37.231Z,22.15
2018-02-21T23:24:04.804Z,23.17
2018-02-21T23:26:32.377Z,23.45
2018-02-21T23:28:59.855Z,22.13
2018-02-21T23:31:27.424Z,22.50
2018-02-21T23:33:54.992Z,22.27
2018-02-21T23:36:22.452Z,21.40
2018-02-21T23:38:49.921Z,21.45
2018-02-21T23:41:17.478Z,21.12
2018-02-21T23:43:44.932Z,21.48
2018-02-21T23:46:12.444Z,21.48
2018-02-21T23:48:39.906Z,22.48
2018-02-21T23:51:07.405Z,20.05
2018-02-21T23:53:35.664Z,19.30
2018-02-21T23:56:03.137Z,20.12
2018-02-21T23:58:30.599Z,21.23
